Time;durP1;ratioP1;P1;durP2;ratioP2;P2;SDS_P1;SDS_P2;PMS_P1;PMS_P2;Temp;Humidity;BMP_temperature;BMP_pressure;BME280_temperature;BME280_humidity;BME280_pressure;Samples;Min_cycle;Max_cycle;Signal;HPM_P1;HPM_P2
2021/09/24 00:01:48;;;;;;;3.60;3.30;;;23.30;45.40;;;;;;5077937;28;20218;-52
2021/09/24 00:04:14;;;;;;;3.40;3.10;;;23.30;45.60;;;;;;5080460;28;20249;-49
2021/09/24 00:06:41;;;;;;;3.80;3.40;;;23.30;45.70;;;;;;5079869;28;20187;-50
2021/09/24 00:09:06;;;;;;;6.53;4.10;;;23.30;45.70;;;;;;5076655;28;20200;-49
2021/09/24 00:11:33;;;;;;;3.87;3.57;;;23.30;45.80;;;;;;5078057;28;20513;-50
2021/09/24 00:13:59;;;;;;;3.47;2.90;;;23.20;45.70;;;;;;5076213;28;20885;-51
2021/09/24 00:16:24;;;;;;;6.20;3.50;;;23.30;45.90;;;;;;5075098;28;20511;-52
2021/09/24 00:18:50;;;;;;;3.43;3.13;;;23.30;45.80;;;;;;5076082;28;20485;-48
2021/09/24 00:21:15;;;;;;;3.60;3.30;;;23.30;45.80;;;;;;5073910;28;20206;-52
2021/09/24 00:23:41;;;;;;;4.60;4.20;;;23.30;45.80;;;;;;5076378;28;20558;-49
2021/09/24 00:26:06;;;;;;;4.17;3.70;;;23.30;45.80;;;;;;5075454;28;20187;-49
2021/09/24 00:28:32;;;;;;;4.13;3.80;;;23.30;45.80;;;;;;5074581;28;20250;-48
2021/09/24 00:30:58;;;;;;;4.50;4.10;;;23.30;45.80;;;;;;5074725;28;20200;-48
2021/09/24 00:33:27;;;;;;;3.40;3.10;;;23.30;45.80;;;;;;5079034;28;20296;-53
2021/09/24 00:35:55;;;;;;;4.60;4.20;;;23.30;45.80;;;;;;5077876;28;20192;-52
2021/09/24 00:38:21;;;;;;;4.07;3.77;;;23.30;45.80;;;;;;5074076;28;20485;-48
2021/09/24 00:40:47;;;;;;;4.27;3.97;;;23.30;45.80;;;;;;5074009;28;20450;-49
2021/09/24 00:43:12;;;;;;;4.50;4.10;;;23.30;45.70;;;;;;5060039;28;21479;-52
2021/09/24 00:45:38;;;;;;;7.70;4.73;;;23.30;45.80;;;;;;5076875;28;20191;-48
2021/09/24 00:48:04;;;;;;;4.90;4.40;;;23.20;45.60;;;;;;5075111;28;20245;-52
2021/09/24 00:50:30;;;;;;;4.77;4.40;;;23.20;44.70;;;;;;5075056;28;20199;-52
2021/09/24 00:52:56;;;;;;;4.57;3.97;;;23.10;44.70;;;;;;5077960;28;20453;-52
2021/09/24 00:55:23;;;;;;;5.07;4.67;;;23.00;45.10;;;;;;5082175;28;20305;-52
2021/09/24 00:57:49;;;;;;;5.03;4.53;;;22.70;45.40;;;;;;5076104;28;20210;-52
2021/09/24 01:00:15;;;;;;;4.70;4.30;;;22.50;45.80;;;;;;5077980;28;20481;-53
2021/09/24 01:02:41;;;;;;;5.43;4.00;;;22.20;46.20;;;;;;5077945;28;20521;-53
2021/09/24 01:05:08;;;;;;;4.50;4.03;;;22.00;47.00;;;;;;5079970;28;20529;-48
2021/09/24 01:07:39;;;;;;;5.37;4.27;;;22.00;47.20;;;;;;5077644;28;20198;-52
2021/09/24 01:10:06;;;;;;;4.30;3.90;;;21.90;47.20;;;;;;5078369;28;20525;-51
2021/09/24 01:12:34;;;;;;;4.63;4.23;;;21.90;47.40;;;;;;5073746;28;20537;-52
2021/09/24 01:15:01;;;;;;;5.20;4.40;;;21.90;47.70;;;;;;5077671;28;20445;-52
2021/09/24 01:17:27;;;;;;;4.00;3.70;;;21.90;47.40;;;;;;5076679;28;20452;-53
2021/09/24 01:19:53;;;;;;;4.83;3.97;;;21.90;47.30;;;;;;5076594;28;20585;-52
2021/09/24 01:22:18;;;;;;;4.60;4.20;;;21.80;47.20;;;;;;5072574;28;20450;-52
2021/09/24 01:24:44;;;;;;;8.70;4.20;;;21.80;47.10;;;;;;5074957;28;20206;-51
2021/09/24 01:27:10;;;;;;;4.60;4.20;;;21.70;47.20;;;;;;5076569;28;20187;-49
2021/09/24 01:29:35;;;;;;;4.90;4.43;;;21.70;47.40;;;;;;5073549;28;20227;-52
2021/09/24 01:32:02;;;;;;;5.10;4.20;;;21.60;47.50;;;;;;5075248;28;20191;-52
2021/09/24 01:34:27;;;;;;;5.20;4.80;;;21.60;48.00;;;;;;5081962;28;20191;-51
2021/09/24 01:36:53;;;;;;;4.13;3.80;;;21.60;48.00;;;;;;5076725;28;20448;-49
2021/09/24 01:39:19;;;;;;;4.90;4.50;;;21.60;48.20;;;;;;5084151;28;20234;-50
2021/09/24 01:41:47;;;;;;;6.00;4.10;;;21.60;48.20;;;;;;5086226;28;20215;-51
2021/09/24 01:44:13;;;;;;;6.40;4.20;;;21.60;48.30;;;;;;5077968;28;20184;-48
2021/09/24 01:46:40;;;;;;;4.77;4.30;;;21.60;48.30;;;;;;5088656;28;20448;-50
2021/09/24 01:49:07;;;;;;;5.57;5.07;;;21.50;48.10;;;;;;5083457;28;20460;-48
2021/09/24 01:51:35;;;;;;;4.77;4.37;;;21.40;48.10;;;;;;5077075;28;20450;-48
2021/09/24 01:54:00;;;;;;;4.63;4.23;;;21.40;48.60;;;;;;5080922;28;20464;-50
2021/09/24 01:56:26;;;;;;;4.27;3.87;;;21.30;48.40;;;;;;5078500;28;20437;-48
2021/09/24 01:58:52;;;;;;;4.47;4.07;;;21.30;48.70;;;;;;5078385;28;20220;-49
2021/09/24 02:01:17;;;;;;;6.37;4.80;;;21.30;49.00;;;;;;5074630;28;20198;-51
2021/09/24 02:03:43;;;;;;;4.30;3.70;;;21.40;48.60;;;;;;5073999;28;20196;-47
2021/09/24 02:06:09;;;;;;;6.60;4.37;;;21.20;48.60;;;;;;5072903;28;20200;-49
2021/09/24 02:08:34;;;;;;;4.70;4.30;;;21.20;48.70;;;;;;5075226;28;20199;-47
2021/09/24 02:11:00;;;;;;;7.77;4.63;;;21.10;48.60;;;;;;5075206;28;20195;-49
2021/09/24 02:13:26;;;;;;;5.00;4.40;;;21.10;49.10;;;;;;5075636;28;20274;-48
2021/09/24 02:15:52;;;;;;;5.07;4.67;;;21.10;49.30;;;;;;5074470;28;20192;-48
2021/09/24 02:18:20;;;;;;;5.50;4.70;;;21.10;49.30;;;;;;5072270;28;20778;-49
2021/09/24 02:20:46;;;;;;;5.70;5.17;;;21.10;49.30;;;;;;5078079;28;20453;-49
2021/09/24 02:23:11;;;;;;;7.47;4.33;;;21.10;48.90;;;;;;5075876;28;20929;-48
2021/09/24 02:25:37;;;;;;;4.77;4.37;;;21.10;48.80;;;;;;5075963;28;20271;-47
2021/09/24 02:28:03;;;;;;;7.53;4.50;;;21.00;49.30;;;;;;5074358;28;20231;-48
2021/09/24 02:30:28;;;;;;;4.73;4.23;;;21.00;49.40;;;;;;5078075;28;20187;-48
2021/09/24 02:32:54;;;;;;;4.30;3.90;;;21.00;49.70;;;;;;5077733;28;20191;-51
2021/09/24 02:35:19;;;;;;;5.37;4.87;;;21.00;49.70;;;;;;5076536;28;20566;-50
2021/09/24 02:37:45;;;;;;;6.50;4.47;;;21.00;49.70;;;;;;5078598;28;20199;-48
2021/09/24 02:40:10;;;;;;;5.17;4.67;;;21.00;49.50;;;;;;5072523;28;20299;-47
2021/09/24 02:42:36;;;;;;;4.67;4.27;;;21.10;49.40;;;;;;5073022;28;20860;-47
2021/09/24 02:45:03;;;;;;;5.00;4.60;;;21.00;49.30;;;;;;5079332;28;20184;-49
2021/09/24 02:47:28;;;;;;;9.57;4.90;;;20.90;49.50;;;;;;5079759;28;20196;-47
2021/09/24 02:49:54;;;;;;;4.63;4.10;;;20.80;49.70;;;;;;5084866;28;20916;-47
2021/09/24 02:52:20;;;;;;;5.77;4.37;;;20.70;50.50;;;;;;5080907;28;20575;-48
2021/09/24 02:54:45;;;;;;;4.70;4.30;;;20.60;50.50;;;;;;5086539;28;20219;-48
2021/09/24 02:57:11;;;;;;;5.87;5.27;;;20.60;50.70;;;;;;5082930;28;20187;-49
2021/09/24 02:59:36;;;;;;;8.40;5.07;;;20.50;50.80;;;;;;5089781;28;20291;-48
2021/09/24 03:02:02;;;;;;;4.90;4.07;;;20.40;50.60;;;;;;5074748;28;20211;-49
2021/09/24 03:04:28;;;;;;;5.93;5.33;;;20.30;50.80;;;;;;5074152;28;20271;-51
2021/09/24 03:06:53;;;;;;;6.60;5.07;;;20.10;51.00;;;;;;5079450;28;20199;-48
2021/09/24 03:09:19;;;;;;;5.17;4.67;;;20.00;51.30;;;;;;5081795;28;20676;-49
2021/09/24 03:11:45;;;;;;;5.70;4.50;;;19.90;51.70;;;;;;5075198;28;20191;-48
2021/09/24 03:14:11;;;;;;;5.93;5.27;;;19.70;51.90;;;;;;5078376;28;20214;-49
2021/09/24 03:16:37;;;;;;;5.30;4.80;;;19.60;52.20;;;;;;5079227;28;20437;-50
2021/09/24 03:19:04;;;;;;;6.50;4.80;;;19.50;52.40;;;;;;5075592;28;20234;-48
2021/09/24 03:21:30;;;;;;;5.50;5.00;;;19.30;52.70;;;;;;5076512;28;20441;-49
2021/09/24 03:23:55;;;;;;;5.97;5.43;;;19.30;53.00;;;;;;5085962;28;20502;-48
2021/09/24 03:26:21;;;;;;;6.53;4.70;;;19.20;53.20;;;;;;5074858;28;21951;-50
2021/09/24 03:28:47;;;;;;;5.43;4.93;;;19.10;53.80;;;;;;5078949;28;20245;-50
2021/09/24 03:31:14;;;;;;;5.87;4.73;;;19.00;53.90;;;;;;5080446;28;20284;-49
2021/09/24 03:33:40;;;;;;;5.20;4.80;;;18.80;54.20;;;;;;5075251;28;20187;-49
2021/09/24 03:36:06;;;;;;;5.67;4.87;;;18.80;53.50;;;;;;5081306;28;20434;-53
2021/09/24 03:38:31;;;;;;;5.30;4.73;;;18.70;53.40;;;;;;5073959;28;20234;-49
2021/09/24 03:40:57;;;;;;;7.43;5.17;;;18.60;53.60;;;;;;5083026;28;20909;-48
2021/09/24 03:43:23;;;;;;;6.73;5.40;;;18.50;53.80;;;;;;5081901;28;20569;-48
2021/09/24 03:45:48;;;;;;;6.60;5.33;;;18.50;54.30;;;;;;5076868;28;20437;-52
2021/09/24 03:48:14;;;;;;;6.00;4.83;;;18.40;54.50;;;;;;5076881;28;20250;-50
2021/09/24 03:50:40;;;;;;;5.90;5.30;;;18.40;54.60;;;;;;5077665;28;20223;-48
2021/09/24 03:53:05;;;;;;;5.10;4.70;;;18.40;54.70;;;;;;5083873;28;20609;-49
2021/09/24 03:55:31;;;;;;;5.80;5.17;;;18.30;54.80;;;;;;5081176;28;20198;-48
2021/09/24 03:57:56;;;;;;;7.03;4.97;;;18.30;55.20;;;;;;5073114;28;20199;-48
2021/09/24 04:00:22;;;;;;;6.10;5.37;;;18.20;55.40;;;;;;5080282;28;20236;-53
2021/09/24 04:02:47;;;;;;;6.30;5.17;;;18.00;55.40;;;;;;5081762;28;20202;-53
2021/09/24 04:05:13;;;;;;;6.10;5.50;;;18.00;55.60;;;;;;5080300;28;20195;-53
2021/09/24 04:07:39;;;;;;;5.90;5.40;;;18.00;55.60;;;;;;5086280;28;20230;-49
2021/09/24 04:10:05;;;;;;;5.23;4.77;;;18.00;55.70;;;;;;5084628;28;20195;-49
2021/09/24 04:12:31;;;;;;;5.30;4.80;;;17.90;55.90;;;;;;5083147;28;20194;-49
2021/09/24 04:14:56;;;;;;;5.93;5.20;;;17.80;56.00;;;;;;5076358;28;21423;-50
2021/09/24 04:17:22;;;;;;;7.40;4.50;;;17.60;56.50;;;;;;5076146;28;20287;-49
2021/09/24 04:19:47;;;;;;;5.57;5.07;;;17.50;56.70;;;;;;5075739;28;20215;-54
2021/09/24 04:22:13;;;;;;;5.87;5.27;;;17.40;56.90;;;;;;5079694;28;20282;-50
2021/09/24 04:24:38;;;;;;;6.10;5.40;;;17.50;57.00;;;;;;5081071;28;20203;-49
2021/09/24 04:27:04;;;;;;;6.97;5.33;;;17.40;57.30;;;;;;5081947;28;20199;-49
2021/09/24 04:29:30;;;;;;;5.13;4.63;;;17.40;57.20;;;;;;5084822;28;20266;-49
2021/09/24 04:31:55;;;;;;;5.70;5.00;;;17.50;57.00;;;;;;5077869;28;20199;-52
2021/09/24 04:34:21;;;;;;;5.17;4.67;;;17.50;56.80;;;;;;5083694;28;20662;-50
2021/09/24 04:36:46;;;;;;;6.67;5.97;;;17.50;56.80;;;;;;5081396;28;20191;-51
2021/09/24 04:39:12;;;;;;;6.80;5.50;;;17.50;56.70;;;;;;5071912;28;20609;-49
2021/09/24 04:41:38;;;;;;;6.90;5.33;;;17.50;56.80;;;;;;5075508;28;20631;-49
2021/09/24 04:44:04;;;;;;;5.30;4.90;;;17.50;56.80;;;;;;5084211;28;20278;-49
2021/09/24 04:46:30;;;;;;;7.00;5.20;;;17.50;56.70;;;;;;5088328;28;20274;-48
2021/09/24 04:48:55;;;;;;;8.43;4.80;;;17.50;56.60;;;;;;5081886;28;20226;-49
2021/09/24 04:51:21;;;;;;;6.80;5.23;;;17.50;56.60;;;;;;5082337;28;20558;-49
2021/09/24 04:53:47;;;;;;;4.80;4.40;;;17.50;56.60;;;;;;5085304;28;20222;-50
2021/09/24 04:56:12;;;;;;;5.43;4.90;;;17.50;56.70;;;;;;5079968;28;20270;-49
2021/09/24 04:58:38;;;;;;;5.63;5.13;;;17.50;57.00;;;;;;5078864;28;20269;-52
2021/09/24 05:01:04;;;;;;;6.30;5.00;;;17.50;56.90;;;;;;5080593;28;20210;-49
2021/09/24 05:03:29;;;;;;;7.70;5.50;;;17.50;56.90;;;;;;5073751;28;20618;-50
2021/09/24 05:05:55;;;;;;;5.50;5.00;;;17.40;56.90;;;;;;5077268;28;20202;-49
2021/09/24 05:08:20;;;;;;;5.73;5.07;;;17.30;57.10;;;;;;5074846;28;20274;-49
2021/09/24 05:10:46;;;;;;;6.17;5.60;;;17.30;57.00;;;;;;5080198;28;20213;-49
2021/09/24 05:13:11;;;;;;;5.23;4.80;;;17.30;57.00;;;;;;5078030;28;20199;-53
2021/09/24 05:15:37;;;;;;;5.70;5.10;;;17.30;57.00;;;;;;5078033;28;20201;-51
2021/09/24 05:18:03;;;;;;;6.73;4.00;;;17.30;57.70;;;;;;5075495;28;20219;-49
2021/09/24 05:20:29;;;;;;;5.37;4.40;;;17.30;63.40;;;;;;5073494;28;20242;-49
2021/09/24 05:22:55;;;;;;;5.50;5.00;;;17.60;59.90;;;;;;5077154;28;20293;-49
2021/09/24 05:25:22;;;;;;;5.40;4.90;;;18.00;57.80;;;;;;5077639;28;20445;-50
2021/09/24 05:27:51;;;;;;;5.83;4.47;;;18.30;56.50;;;;;;5081950;28;20975;-49
2021/09/24 05:30:18;;;;;;;7.77;5.30;;;18.60;55.50;;;;;;5073856;28;20466;-50
2021/09/24 05:32:44;;;;;;;4.87;4.20;;;18.80;54.80;;;;;;5074204;28;20471;-52
2021/09/24 05:35:10;;;;;;;4.57;4.17;;;18.90;54.30;;;;;;5074297;28;20581;-50
2021/09/24 05:37:36;;;;;;;5.03;4.53;;;19.10;53.90;;;;;;5077883;28;20547;-48
2021/09/24 05:40:02;;;;;;;6.90;4.50;;;19.20;53.50;;;;;;5077011;28;20903;-53
2021/09/24 05:42:28;;;;;;;5.23;4.73;;;19.30;53.00;;;;;;5078648;28;20257;-49
2021/09/24 05:44:55;;;;;;;7.33;4.83;;;19.40;52.60;;;;;;5087177;28;20433;-51
2021/09/24 05:47:21;;;;;;;5.80;4.50;;;19.50;52.30;;;;;;5080898;28;20195;-50
2021/09/24 05:49:46;;;;;;;4.40;4.00;;;19.50;52.20;;;;;;5081938;28;20492;-49
2021/09/24 05:52:12;;;;;;;5.47;4.70;;;19.50;52.00;;;;;;5075066;28;20203;-49
2021/09/24 05:54:37;;;;;;;6.13;5.00;;;19.60;52.00;;;;;;5088921;28;20279;-50
2021/09/24 05:57:03;;;;;;;4.90;4.40;;;19.70;52.00;;;;;;5088251;28;20187;-48
2021/09/24 05:59:29;;;;;;;5.30;4.80;;;19.70;51.70;;;;;;5076818;28;20693;-49
2021/09/24 06:01:54;;;;;;;7.53;4.70;;;19.70;51.60;;;;;;5088135;28;20286;-48
2021/09/24 06:04:20;;;;;;;12.50;5.97;;;19.80;51.60;;;;;;5090163;28;20594;-50
2021/09/24 06:06:46;;;;;;;11.97;4.70;;;19.80;51.40;;;;;;5090637;28;20586;-48
2021/09/24 06:09:12;;;;;;;8.80;6.10;;;19.80;51.40;;;;;;5088147;28;20194;-48
2021/09/24 06:11:38;;;;;;;9.33;4.77;;;19.90;51.30;;;;;;5088915;28;20520;-48
2021/09/24 06:14:04;;;;;;;7.10;4.67;;;20.00;51.10;;;;;;5077409;28;20275;-48
2021/09/24 06:16:30;;;;;;;5.83;4.80;;;20.00;50.80;;;;;;5083324;28;20196;-50
2021/09/24 06:18:55;;;;;;;9.30;5.40;;;20.10;50.70;;;;;;5083694;28;20489;-47
2021/09/24 06:21:24;;;;;;;7.07;5.50;;;20.10;50.60;;;;;;5093797;28;20252;-49
2021/09/24 06:23:50;;;;;;;8.87;4.60;;;20.20;50.40;;;;;;5093920;28;20202;-48
2021/09/24 06:26:16;;;;;;;7.70;6.97;;;20.30;50.40;;;;;;5085388;28;20843;-49
2021/09/24 06:28:41;;;;;;;6.90;6.30;;;20.40;50.30;;;;;;5089673;28;20465;-49
2021/09/24 06:31:07;;;;;;;6.70;6.10;;;20.50;50.30;;;;;;5090059;28;20195;-50
2021/09/24 06:33:32;;;;;;;8.10;6.77;;;20.70;50.40;;;;;;5089153;28;20245;-49
2021/09/24 06:35:58;;;;;;;7.13;6.50;;;20.80;50.30;;;;;;5093242;28;20282;-48
2021/09/24 06:38:25;;;;;;;6.33;5.73;;;20.90;50.20;;;;;;5093796;28;20659;-49
2021/09/24 06:40:51;;;;;;;6.53;5.20;;;21.00;50.10;;;;;;5093138;28;20195;-51
2021/09/24 06:43:17;;;;;;;5.40;5.00;;;21.10;49.90;;;;;;5083184;28;20440;-48
2021/09/24 06:45:42;;;;;;;4.67;4.27;;;21.30;50.00;;;;;;5090998;28;20199;-48
2021/09/24 06:48:08;;;;;;;6.00;5.40;;;21.40;49.90;;;;;;5079009;28;20444;-51
2021/09/24 06:50:35;;;;;;;5.90;5.30;;;21.60;49.70;;;;;;5081710;28;20192;-53
2021/09/24 06:53:01;;;;;;;5.63;5.00;;;21.70;49.50;;;;;;5092557;28;20202;-51
2021/09/24 06:55:30;;;;;;;6.13;4.57;;;21.90;49.30;;;;;;5094911;28;20429;-50
2021/09/24 06:57:57;;;;;;;5.50;5.00;;;21.90;49.20;;;;;;5085774;28;20590;-53
2021/09/24 07:00:23;;;;;;;8.77;5.40;;;22.00;49.20;;;;;;5080294;28;20565;-51
2021/09/24 07:02:49;;;;;;;7.50;5.00;;;22.00;49.00;;;;;;5078111;28;20421;-51
2021/09/24 07:05:15;;;;;;;5.43;4.93;;;22.00;49.00;;;;;;5092623;28;20438;-52
2021/09/24 07:07:41;;;;;;;6.20;5.60;;;22.00;49.10;;;;;;5092966;28;20232;-54
2021/09/24 07:10:08;;;;;;;6.70;6.00;;;21.90;49.60;;;;;;5091738;28;20934;-49
2021/09/24 07:12:34;;;;;;;5.33;4.83;;;22.00;50.20;;;;;;5093664;28;20439;-54
2021/09/24 07:15:00;;;;;;;8.80;5.33;;;22.20;50.10;;;;;;5078935;28;20604;-48
2021/09/24 07:17:26;;;;;;;6.17;5.40;;;22.40;49.90;;;;;;5081685;28;20426;-52
2021/09/24 07:19:51;;;;;;;5.73;5.23;;;22.60;49.60;;;;;;5080855;28;20248;-51
2021/09/24 07:22:17;;;;;;;5.70;5.13;;;22.70;49.30;;;;;;5081017;28;20188;-52
2021/09/24 07:24:42;;;;;;;8.43;5.03;;;22.90;49.00;;;;;;5086599;28;20184;-48
2021/09/24 07:27:08;;;;;;;6.30;5.70;;;23.10;48.90;;;;;;5078161;28;20275;-52
2021/09/24 07:29:34;;;;;;;5.70;5.17;;;23.30;48.90;;;;;;5078310;28;20705;-50
2021/09/24 07:31:59;;;;;;;5.80;5.30;;;23.50;48.70;;;;;;5089383;28;20230;-53
2021/09/24 07:34:25;;;;;;;5.40;4.90;;;23.40;49.10;;;;;;5089589;28;20195;-48
2021/09/24 07:36:51;;;;;;;6.00;5.40;;;23.30;48.60;;;;;;5083341;28;20191;-49
2021/09/24 07:39:20;;;;;;;5.80;5.20;;;23.40;48.70;;;;;;5079679;28;20219;-50
2021/09/24 07:41:46;;;;;;;5.77;5.27;;;23.60;48.60;;;;;;5087486;28;20199;-49
2021/09/24 07:44:11;;;;;;;5.47;4.97;;;23.70;48.60;;;;;;5091491;28;20436;-53
2021/09/24 07:46:37;;;;;;;5.87;5.43;;;23.80;48.40;;;;;;5087464;28;20298;-53
2021/09/24 07:49:04;;;;;;;5.93;5.33;;;23.90;48.40;;;;;;5082841;28;20199;-50
2021/09/24 07:51:30;;;;;;;5.70;5.20;;;24.00;48.00;;;;;;5080342;28;20199;-50
2021/09/24 07:53:56;;;;;;;5.90;5.40;;;24.10;47.60;;;;;;5091547;28;21020;-48
2021/09/24 07:56:24;;;;;;;5.27;4.83;;;24.30;47.50;;;;;;5075562;28;20192;-53
2021/09/24 07:58:51;;;;;;;6.07;5.57;;;24.40;47.70;;;;;;5083216;28;20219;-50
2021/09/24 08:01:17;;;;;;;7.10;5.53;;;24.50;48.20;;;;;;5091344;28;20441;-49
2021/09/24 08:03:57;;;;;;;6.03;5.20;;;24.30;47.60;;;;;;5090180;28;20437;-53
2021/09/24 08:06:22;;;;;;;8.57;5.73;;;24.10;48.10;;;;;;5079821;28;20509;-51
2021/09/24 08:08:48;;;;;;;5.90;5.33;;;24.00;48.40;;;;;;5091918;28;20433;-52
2021/09/24 08:11:15;;;;;;;5.90;5.03;;;24.00;48.10;;;;;;5089724;28;20322;-48
2021/09/24 08:13:42;;;;;;;6.43;5.30;;;24.00;48.20;;;;;;5088519;28;20522;-50
2021/09/24 08:16:08;;;;;;;5.53;4.93;;;24.10;48.30;;;;;;5086682;28;20815;-53
2021/09/24 08:18:33;;;;;;;6.17;4.90;;;24.20;47.70;;;;;;5089811;28;20478;-53
2021/09/24 08:20:59;;;;;;;6.30;4.93;;;24.30;47.70;;;;;;5083381;28;20426;-54
2021/09/24 08:23:26;;;;;;;5.60;5.13;;;24.30;47.50;;;;;;5086764;28;20226;-49
2021/09/24 08:25:52;;;;;;;5.67;5.17;;;24.30;47.30;;;;;;5085348;28;20931;-53
2021/09/24 08:28:18;;;;;;;6.67;5.97;;;24.30;48.00;;;;;;5090399;28;20497;-53
2021/09/24 08:30:44;;;;;;;5.90;5.40;;;24.20;47.90;;;;;;5090391;28;20210;-50
2021/09/24 08:33:10;;;;;;;5.50;5.00;;;23.80;48.70;;;;;;5087096;28;20430;-49
2021/09/24 08:35:36;;;;;;;6.00;5.50;;;23.90;48.60;;;;;;5072094;28;20445;-52
2021/09/24 08:38:02;;;;;;;5.60;5.00;;;24.00;48.20;;;;;;5085405;28;20201;-53
2021/09/24 08:40:30;;;;;;;7.40;5.67;;;24.10;48.10;;;;;;5090129;28;20477;-49
2021/09/24 08:42:56;;;;;;;6.10;5.50;;;24.10;48.00;;;;;;5087958;28;20928;-51
2021/09/24 08:45:23;;;;;;;5.33;4.83;;;24.00;48.20;;;;;;5081621;28;20448;-51
2021/09/24 08:47:56;;;;;;;6.00;5.20;;;24.10;48.20;;;;;;5082742;28;20200;-52
2021/09/24 08:50:23;;;;;;;6.43;5.50;;;24.00;48.90;;;;;;5085908;28;20766;-53
2021/09/24 08:52:55;;;;;;;5.53;5.03;;;24.10;49.10;;;;;;5087743;28;20854;-48
2021/09/24 08:55:21;;;;;;;5.20;4.70;;;24.20;48.30;;;;;;5086409;28;20434;-52
2021/09/24 09:00:51;;;;;;;5.97;5.37;;;24.70;48.30;;;;;;5086506;28;20207;-53
2021/09/24 09:03:20;;;;;;;6.13;5.63;;;24.90;48.20;;;;;;5080034;28;20437;-54
2021/09/24 09:05:59;;;;;;;7.10;6.50;;;25.10;47.30;;;;;;5083716;28;20433;-52
2021/09/24 09:08:31;;;;;;;9.43;6.20;;;25.30;46.90;;;;;;5091104;28;20947;-49
2021/09/24 09:11:08;;;;;;;7.20;6.30;;;25.40;46.70;;;;;;5090015;28;20448;-53
2021/09/24 09:13:50;;;;;;;6.30;5.27;;;25.60;46.00;;;;;;5086492;28;20992;-53
2021/09/24 09:16:23;;;;;;;7.00;6.00;;;25.40;46.40;;;;;;5079807;28;20518;-50
2021/09/24 09:18:50;;;;;;;5.60;5.10;;;25.60;45.80;;;;;;5075875;28;20481;-48
2021/09/24 09:21:22;;;;;;;5.93;5.43;;;25.70;45.40;;;;;;5081383;28;20956;-49
2021/09/24 09:23:52;;;;;;;6.90;5.57;;;25.80;45.40;;;;;;5087286;28;20421;-49
2021/09/24 09:26:19;;;;;;;7.60;5.63;;;26.00;44.90;;;;;;5087547;28;20441;-50
2021/09/24 09:28:57;;;;;;;6.00;5.40;;;26.10;45.40;;;;;;5084864;28;20505;-50
2021/09/24 09:31:32;;;;;;;6.70;6.10;;;26.10;44.70;;;;;;5088792;28;20447;-50
2021/09/24 09:34:04;;;;;;;10.20;5.53;;;26.20;44.40;;;;;;5087526;28;20452;-53
2021/09/24 09:36:32;;;;;;;6.43;5.83;;;26.30;44.60;;;;;;5071772;28;20444;-50
2021/09/24 09:38:59;;;;;;;7.00;6.30;;;26.40;45.00;;;;;;5086946;28;20983;-52
2021/09/24 09:41:26;;;;;;;5.70;5.07;;;26.60;44.60;;;;;;5078575;28;20453;-50
2021/09/24 09:43:59;;;;;;;5.53;5.03;;;26.70;43.80;;;;;;5072929;28;20554;-51
2021/09/24 09:46:30;;;;;;;6.00;5.07;;;26.80;43.70;;;;;;5079862;28;20449;-51
2021/09/24 09:49:14;;;;;;;6.70;5.03;;;27.00;43.30;;;;;;5075499;28;20473;-48
2021/09/24 09:51:42;;;;;;;5.83;4.80;;;27.00;43.00;;;;;;5088541;28;20498;-52
2021/09/24 09:54:11;;;;;;;5.77;5.17;;;27.20;43.30;;;;;;5089886;28;20433;-51
2021/09/24 09:56:49;;;;;;;6.80;4.70;;;27.30;42.50;;;;;;5084847;28;20484;-53
2021/09/24 09:59:22;;;;;;;5.63;5.03;;;27.40;41.60;;;;;;5081381;28;20845;-52
2021/09/24 10:01:48;;;;;;;5.20;4.70;;;27.50;42.20;;;;;;5090378;28;20444;-51
2021/09/24 10:04:15;;;;;;;6.77;4.60;;;27.40;42.50;;;;;;5088254;28;20503;-53
2021/09/24 10:06:41;;;;;;;5.50;5.00;;;27.40;42.80;;;;;;5090701;28;20187;-53
2021/09/24 10:09:09;;;;;;;5.80;5.30;;;27.40;42.60;;;;;;5086089;28;20437;-50
2021/09/24 10:11:39;;;;;;;7.13;5.40;;;27.40;42.30;;;;;;5088792;28;20669;-50
2021/09/24 10:14:12;;;;;;;4.90;4.50;;;27.50;41.80;;;;;;5091981;28;20819;-50
2021/09/24 10:16:40;;;;;;;7.03;4.80;;;27.60;41.90;;;;;;5091733;28;20453;-49
2021/09/24 10:19:07;;;;;;;8.53;4.63;;;27.80;41.20;;;;;;5086658;28;20538;-50
2021/09/24 10:21:32;;;;;;;5.60;5.20;;;28.00;41.50;;;;;;5091102;28;20441;-50
2021/09/24 10:23:58;;;;;;;6.07;5.47;;;27.30;41.20;;;;;;5089518;28;21008;-53
2021/09/24 10:26:36;;;;;;;5.10;4.60;;;27.20;42.10;;;;;;5092080;28;20244;-49
2021/09/24 10:29:09;;;;;;;5.10;4.67;;;27.50;41.90;;;;;;5090925;28;21039;-48
2021/09/24 10:31:37;;;;;;;5.83;5.13;;;27.70;41.50;;;;;;5079373;28;20483;-50
2021/09/24 10:34:03;;;;;;;6.60;4.97;;;28.00;41.30;;;;;;5088972;28;20469;-47
2021/09/24 10:36:49;;;;;;;5.77;5.17;;;28.20;41.10;;;;;;5093566;28;20471;-50
2021/09/24 10:39:29;;;;;;;5.73;5.03;;;28.50;40.30;;;;;;5087588;28;20477;-48
2021/09/24 10:42:33;;;;;;;7.33;5.10;;;28.50;39.50;;;;;;5089591;28;20450;-48
2021/09/24 10:44:59;;;;;;;5.30;4.87;;;28.20;40.30;;;;;;5041344;28;20865;-49
2021/09/24 10:47:42;;;;;;;7.83;4.80;;;28.10;41.10;;;;;;5085720;28;20516;-48
2021/09/24 10:50:31;;;;;;;5.63;4.17;;;28.40;40.50;;;;;;5089175;28;20251;-49
2021/09/24 10:55:42;;;;;;;7.30;4.40;;;28.30;39.80;;;;;;5076756;28;20452;-47
2021/09/24 10:58:13;;;;;;;8.23;4.30;;;28.50;40.40;;;;;;5076651;28;20457;-48
2021/09/24 11:00:46;;;;;;;4.60;3.80;;;28.60;39.20;;;;;;5089851;28;20481;-48
2021/09/24 11:03:15;;;;;;;4.47;4.13;;;28.80;39.40;;;;;;5076595;28;20462;-48
2021/09/24 11:06:02;;;;;;;4.20;3.90;;;29.00;38.90;;;;;;5088473;28;20464;-48
2021/09/24 11:08:35;;;;;;;4.83;4.33;;;29.00;38.60;;;;;;5085242;28;21006;-48
2021/09/24 11:11:06;;;;;;;5.03;4.03;;;28.70;39.20;;;;;;5081390;28;20954;-51
2021/09/24 11:13:34;;;;;;;3.80;3.53;;;28.80;39.50;;;;;;5092683;28;20427;-52
2021/09/24 11:16:02;;;;;;;4.03;3.33;;;29.10;39.50;;;;;;5077838;28;20851;-53
2021/09/24 11:18:47;;;;;;;4.27;3.70;;;29.30;37.40;;;;;;5086277;28;20849;-49
2021/09/24 11:21:13;;;;;;;3.43;3.17;;;29.40;37.20;;;;;;5077295;28;20437;-50
2021/09/24 11:23:39;;;;;;;4.30;3.90;;;29.30;37.10;;;;;;5079170;28;20434;-48
2021/09/24 11:26:13;;;;;;;4.33;3.67;;;29.20;37.60;;;;;;5078800;28;20503;-50
2021/09/24 11:28:39;;;;;;;4.00;3.50;;;28.70;37.50;;;;;;5085334;28;20273;-48
2021/09/24 11:31:04;;;;;;;4.27;3.40;;;28.70;38.70;;;;;;5087673;28;20433;-48
2021/09/24 11:33:48;;;;;;;4.17;3.77;;;28.90;38.80;;;;;;5086531;28;20790;-48
2021/09/24 11:36:34;;;;;;;3.50;3.23;;;29.00;38.30;;;;;;5086696;28;20199;-48
2021/09/24 11:39:04;;;;;;;5.57;3.70;;;29.20;38.30;;;;;;5080461;28;20469;-48
2021/09/24 11:41:30;;;;;;;4.53;3.43;;;29.30;37.50;;;;;;5090028;28;20433;-48
2021/09/24 11:43:57;;;;;;;3.13;2.93;;;29.40;37.10;;;;;;5085002;28;20430;-48
2021/09/24 11:46:26;;;;;;;3.93;3.63;;;29.40;37.20;;;;;;5074642;28;20188;-48
2021/09/24 11:48:52;;;;;;;5.40;3.60;;;29.50;37.20;;;;;;5076625;28;20446;-48
2021/09/24 11:51:25;;;;;;;4.40;4.00;;;29.40;36.90;;;;;;5080144;28;20966;-48
2021/09/24 11:53:53;;;;;;;4.70;4.30;;;29.40;36.70;;;;;;5077551;28;21000;-47
2021/09/24 11:56:31;;;;;;;7.13;3.03;;;29.40;36.50;;;;;;5078176;28;20429;-48
2021/09/24 11:59:08;;;;;;;4.70;4.30;;;29.30;37.60;;;;;;5081833;28;20852;-49
2021/09/24 12:01:35;;;;;;;4.47;3.93;;;29.20;37.40;;;;;;5084249;28;20591;-47
2021/09/24 12:04:03;;;;;;;3.80;3.47;;;29.40;36.80;;;;;;5086156;28;20434;-48
2021/09/24 12:06:42;;;;;;;4.37;4.00;;;29.60;36.80;;;;;;5083263;28;20558;-48
2021/09/24 12:09:15;;;;;;;4.90;3.57;;;29.80;36.10;;;;;;5081845;28;20468;-48
2021/09/24 12:11:58;;;;;;;3.87;3.57;;;29.80;36.30;;;;;;5077044;28;20464;-48
2021/09/24 12:14:24;;;;;;;4.10;3.80;;;29.50;36.70;;;;;;5072982;28;20789;-48
2021/09/24 12:16:51;;;;;;;4.07;3.47;;;29.40;36.90;;;;;;5082509;28;20860;-47
2021/09/24 12:19:21;;;;;;;3.67;3.37;;;28.90;37.30;;;;;;5084327;28;21014;-51
2021/09/24 12:21:52;;;;;;;3.70;3.40;;;28.80;37.90;;;;;;5083736;28;20441;-49
2021/09/24 12:24:22;;;;;;;4.67;4.07;;;28.90;37.90;;;;;;5081997;28;20487;-50
2021/09/24 12:26:51;;;;;;;3.83;3.43;;;29.20;37.50;;;;;;5076271;28;20440;-52
2021/09/24 12:29:26;;;;;;;4.30;3.80;;;29.30;37.20;;;;;;5077851;28;20553;-47
2021/09/24 12:31:53;;;;;;;4.30;3.40;;;29.40;37.20;;;;;;5084890;28;20468;-47
2021/09/24 12:34:21;;;;;;;7.67;4.17;;;29.40;37.00;;;;;;5081010;28;20464;-49
2021/09/24 12:37:03;;;;;;;3.63;3.33;;;29.50;37.30;;;;;;5084593;28;20924;-49
2021/09/24 12:39:41;;;;;;;3.57;3.30;;;29.60;37.70;;;;;;5074964;28;20490;-48
2021/09/24 12:42:12;;;;;;;3.93;3.63;;;29.60;37.10;;;;;;5077879;28;20425;-47
2021/09/24 12:44:53;;;;;;;4.00;3.70;;;29.90;36.90;;;;;;5081135;28;20429;-48
2021/09/24 12:47:25;;;;;;;3.57;3.27;;;30.00;36.10;;;;;;5079575;28;20426;-48
2021/09/24 12:49:52;;;;;;;4.03;3.43;;;29.90;35.80;;;;;;5077059;28;20937;-48
2021/09/24 12:52:19;;;;;;;3.73;3.27;;;30.00;35.70;;;;;;5078131;28;20448;-50
2021/09/24 12:54:46;;;;;;;3.27;3.07;;;30.00;35.30;;;;;;5086962;28;20441;-50